createdAt,value
2018-12-27T00:02:07.015Z,15.30
2018-12-27T00:05:11.106Z,13.07
2018-12-27T00:08:15.615Z,14.80
2018-12-27T00:11:19.762Z,15.83
2018-12-27T00:14:23.982Z,13.20
2018-12-27T00:17:27.946Z,8.77
2018-12-27T00:20:31.969Z,11.97
2018-12-27T00:23:35.810Z,9.47
2018-12-27T00:26:39.666Z,10.17
2018-12-27T00:29:43.709Z,11.00
2018-12-27T00:32:47.711Z,12.07
2018-12-27T00:35:51.721Z,10.43
2018-12-27T00:38:55.882Z,13.00
2018-12-27T00:41:59.866Z,15.03
2018-12-27T00:45:04.170Z,10.73
2018-12-27T00:48:10.975Z,11.47
2018-12-27T00:51:15.020Z,9.77
2018-12-27T00:54:18.995Z,14.67
2018-12-27T00:57:23.286Z,14.23
2018-12-27T01:00:27.288Z,17.20
2018-12-27T01:03:31.291Z,14.57
2018-12-27T01:06:35.274Z,16.67
2018-12-27T01:09:39.252Z,15.93
2018-12-27T01:12:43.254Z,13.77
2018-12-27T01:15:47.299Z,21.80
2018-12-27T01:18:51.577Z,17.37
2018-12-27T01:21:55.555Z,18.37
2018-12-27T01:24:59.541Z,20.03
2018-12-27T01:28:03.508Z,20.10
2018-12-27T01:31:07.480Z,22.20
2018-12-27T01:38:29.719Z,26.17
2018-12-27T01:41:33.721Z,22.67
2018-12-27T01:44:37.711Z,14.77
2018-12-27T01:47:41.703Z,16.60
2018-12-27T01:50:45.680Z,16.27
2018-12-27T01:53:49.678Z,15.13
2018-12-27T01:56:53.711Z,15.60
2018-12-27T01:59:57.700Z,16.07
2018-12-27T02:03:01.687Z,16.30
2018-12-27T02:06:09.098Z,14.43
2018-12-27T02:09:13.094Z,15.90
2018-12-27T02:12:17.067Z,14.17
2018-12-27T02:15:21.046Z,15.37
2018-12-27T02:18:25.037Z,18.33
2018-12-27T02:21:29.006Z,13.70
2018-12-27T02:24:32.991Z,17.17
2018-12-27T02:27:36.977Z,17.63
2018-12-27T02:30:41.015Z,14.90
2018-12-27T02:33:45.063Z,18.27
2018-12-27T02:36:49.049Z,15.73
2018-12-27T02:39:53.056Z,14.73
2018-12-27T02:42:57.045Z,17.70
2018-12-27T02:46:01.090Z,17.27
2018-12-27T02:49:05.076Z,18.87
2018-12-27T02:52:09.069Z,17.93
2018-12-27T02:55:13.058Z,16.27
2018-12-27T02:58:17.052Z,15.50
2018-12-27T03:01:21.062Z,17.80
2018-12-27T03:04:25.116Z,14.03
2018-12-27T03:07:29.110Z,16.20
2018-12-27T03:10:33.328Z,13.70
2018-12-27T03:13:37.330Z,13.63
2018-12-27T03:16:41.322Z,12.03
2018-12-27T03:19:45.317Z,14.00
2018-12-27T03:22:49.304Z,13.30
2018-12-27T03:25:53.289Z,13.17
2018-12-27T03:28:57.255Z,14.20
2018-12-27T03:32:03.615Z,14.63
2018-12-27T03:35:07.625Z,15.67
2018-12-27T03:38:11.619Z,14.87
2018-12-27T03:41:15.641Z,16.27
2018-12-27T03:44:19.671Z,14.67
2018-12-27T03:47:23.652Z,10.50
2018-12-27T03:50:27.647Z,15.03
2018-12-27T03:53:31.641Z,14.57
2018-12-27T03:56:35.777Z,15.40
2018-12-27T03:59:39.754Z,12.07
2018-12-27T04:02:43.758Z,14.60
2018-12-27T04:05:47.760Z,13.20
2018-12-27T04:08:51.782Z,15.87
2018-12-27T04:11:55.776Z,15.53
2018-12-27T04:15:06.809Z,19.07
2018-12-27T04:18:10.662Z,13.70
2018-12-27T04:21:14.780Z,18.73
2018-12-27T04:24:20.539Z,14.47
2018-12-27T04:27:24.431Z,18.43
2018-12-27T04:30:28.482Z,19.23
2018-12-27T04:33:32.644Z,16.73
2018-12-27T04:36:36.914Z,15.83
2018-12-27T04:39:40.802Z,18.83
2018-12-27T04:42:44.998Z,18.80
2018-12-27T04:45:48.918Z,15.13
2018-12-27T04:48:52.782Z,17.73
2018-12-27T04:51:56.663Z,14.03
2018-12-27T04:55:00.800Z,17.10
2018-12-27T04:58:04.687Z,18.27
2018-12-27T05:01:08.558Z,20.80
2018-12-27T05:04:18.102Z,18.70
2018-12-27T05:07:18.036Z,19.97
2018-12-27T05:10:21.929Z,19.40
2018-12-27T05:13:25.805Z,23.33
2018-12-27T05:16:29.665Z,22.77
2018-12-27T05:19:36.914Z,18.00
2018-12-27T05:22:40.794Z,16.43
2018-12-27T05:25:44.692Z,20.80
2018-12-27T05:28:48.843Z,20.97
2018-12-27T05:31:52.853Z,15.60
2018-12-27T05:34:56.752Z,23.03
2018-12-27T05:38:00.642Z,23.20
2018-12-27T05:41:04.527Z,17.20
2018-12-27T05:44:08.506Z,26.53
2018-12-27T05:47:12.372Z,24.37
2018-12-27T05:50:16.333Z,25.60
2018-12-27T05:53:20.192Z,22.47
2018-12-27T05:56:24.053Z,25.87
2018-12-27T05:59:27.921Z,22.33
2018-12-27T06:02:31.885Z,25.60
2018-12-27T06:05:36.244Z,24.83
2018-12-27T06:08:41.186Z,27.63
2018-12-27T06:11:46.716Z,31.27
2018-12-27T06:14:50.579Z,34.97
2018-12-27T06:17:56.564Z,34.20
2018-12-27T06:21:00.429Z,39.00
2018-12-27T06:24:04.361Z,32.10
2018-12-27T06:27:08.245Z,32.93
2018-12-27T06:30:12.276Z,40.60
2018-12-27T06:33:16.145Z,42.47
2018-12-27T06:36:20.026Z,50.30
2018-12-27T06:39:24.115Z,46.70
2018-12-27T06:42:28.014Z,54.03
2018-12-27T06:45:32.066Z,47.70
2018-12-27T06:48:36.075Z,48.83
2018-12-27T06:51:40.024Z,42.47
2018-12-27T06:54:43.931Z,52.10
2018-12-27T06:57:47.817Z,45.50
2018-12-27T07:00:51.771Z,52.50
2018-12-27T07:03:55.687Z,60.00
2018-12-27T07:07:00.111Z,49.63
2018-12-27T07:10:04.382Z,52.13
2018-12-27T07:13:08.355Z,45.80
2018-12-27T07:16:12.311Z,51.27
2018-12-27T07:19:16.180Z,43.07
2018-12-27T07:22:21.994Z,52.03
2018-12-27T07:25:25.840Z,57.77
2018-12-27T07:28:29.718Z,59.00
2018-12-27T07:31:33.578Z,49.20
2018-12-27T07:34:37.460Z,55.23
2018-12-27T07:37:41.329Z,48.40
2018-12-27T07:40:45.225Z,50.27
2018-12-27T07:43:49.228Z,47.47
2018-12-27T07:46:53.064Z,43.10
2018-12-27T07:49:56.964Z,43.37
2018-12-27T07:53:00.845Z,53.53
2018-12-27T07:56:06.816Z,44.53
2018-12-27T07:59:13.994Z,41.23
2018-12-27T08:02:21.518Z,43.03
2018-12-27T08:05:25.468Z,37.07
2018-12-27T08:08:29.324Z,43.60
2018-12-27T08:11:33.217Z,46.73
2018-12-27T08:14:37.098Z,51.13
2018-12-27T08:17:40.970Z,42.87
2018-12-27T08:20:44.854Z,46.13
2018-12-27T08:23:48.835Z,47.70
2018-12-27T08:26:52.791Z,49.70
2018-12-27T08:29:56.665Z,44.60
2018-12-27T08:33:00.575Z,40.13
2018-12-27T08:36:10.899Z,46.20
2018-12-27T08:39:14.847Z,35.27
2018-12-27T08:42:18.777Z,42.40
2018-12-27T08:45:24.126Z,30.03
2018-12-27T08:48:27.956Z,38.07
2018-12-27T08:51:31.902Z,31.93
2018-12-27T08:54:35.867Z,33.33
2018-12-27T08:57:39.747Z,29.73
2018-12-27T09:00:43.629Z,35.17
2018-12-27T09:03:47.573Z,35.50
2018-12-27T09:06:51.446Z,38.57
2018-12-27T09:09:55.394Z,35.70
2018-12-27T09:12:59.313Z,33.73
2018-12-27T09:16:03.337Z,34.33
2018-12-27T09:19:07.337Z,42.67
2018-12-27T09:22:11.278Z,36.80
2018-12-27T09:25:15.503Z,36.70
2018-12-27T09:28:19.359Z,35.57
2018-12-27T09:31:23.285Z,42.80
2018-12-27T09:34:27.271Z,37.20
2018-12-27T09:37:31.198Z,42.63
2018-12-27T09:40:35.170Z,49.77
2018-12-27T09:43:42.588Z,34.33
2018-12-27T09:46:46.658Z,43.57
2018-12-27T09:49:53.235Z,47.30
2018-12-27T09:53:00.812Z,44.10
2018-12-27T09:56:05.035Z,43.13
2018-12-27T09:59:09.136Z,47.17
2018-12-27T10:02:13.110Z,45.43
2018-12-27T10:05:17.723Z,48.80
2018-12-27T10:08:21.659Z,54.97
2018-12-27T10:11:25.525Z,46.03
2018-12-27T10:14:29.495Z,44.43
2018-12-27T10:17:33.363Z,40.20
2018-12-27T10:20:37.237Z,32.10
2018-12-27T10:23:45.742Z,38.97
2018-12-27T10:26:49.602Z,31.73
2018-12-27T10:29:53.466Z,34.27
2018-12-27T10:32:57.402Z,38.27
2018-12-27T10:36:01.313Z,27.00
2018-12-27T10:39:10.053Z,37.50
2018-12-27T10:42:13.940Z,31.10
2018-12-27T10:45:17.828Z,33.07
2018-12-27T10:48:21.692Z,41.23
2018-12-27T10:51:25.580Z,42.20
2018-12-27T10:54:29.432Z,38.30
2018-12-27T10:57:34.905Z,37.10
2018-12-27T11:00:38.954Z,29.03
2018-12-27T11:03:42.849Z,28.00
2018-12-27T11:06:46.790Z,32.30
2018-12-27T11:09:50.654Z,31.40
2018-12-27T11:12:54.566Z,29.73
2018-12-27T11:15:58.542Z,32.77
2018-12-27T11:19:02.408Z,32.83
2018-12-27T11:22:06.306Z,30.50
2018-12-27T11:25:10.251Z,31.47
2018-12-27T11:28:14.114Z,32.93
2018-12-27T11:31:18.080Z,32.27
2018-12-27T11:34:21.967Z,32.77
2018-12-27T11:37:25.856Z,31.40
2018-12-27T11:40:29.784Z,33.23
2018-12-27T11:43:33.641Z,29.57
2018-12-27T11:46:37.657Z,34.70
2018-12-27T11:49:41.587Z,29.00
2018-12-27T11:52:45.491Z,28.53
2018-12-27T11:55:49.574Z,32.87
2018-12-27T11:58:53.455Z,27.87
2018-12-27T12:01:57.315Z,29.37
2018-12-27T12:05:01.271Z,27.93
2018-12-27T12:08:05.281Z,34.13
2018-12-27T12:11:09.166Z,24.03
2018-12-27T12:14:13.117Z,24.53
2018-12-27T12:17:17.052Z,37.00
2018-12-27T12:20:20.917Z,28.80
2018-12-27T12:23:24.844Z,29.13
2018-12-27T12:26:28.716Z,36.77
2018-12-27T12:29:32.664Z,29.60
2018-12-27T12:32:36.554Z,21.03
2018-12-27T12:35:40.403Z,36.60
2018-12-27T12:38:44.727Z,30.00
2018-12-27T12:41:48.586Z,30.47
2018-12-27T12:44:52.444Z,27.60
2018-12-27T12:47:56.324Z,32.43
2018-12-27T12:51:00.201Z,36.60
2018-12-27T12:54:04.211Z,28.63
2018-12-27T12:57:08.204Z,33.77
2018-12-27T13:00:12.950Z,34.03
2018-12-27T13:03:16.972Z,32.10
2018-12-27T13:06:20.834Z,39.37
2018-12-27T13:09:24.849Z,31.83
2018-12-27T13:12:29.107Z,25.50
2018-12-27T13:15:33.136Z,31.50
2018-12-27T13:18:37.000Z,25.60
2018-12-27T13:21:41.358Z,32.00
2018-12-27T13:24:45.309Z,33.93
2018-12-27T13:27:49.174Z,38.77
2018-12-27T13:30:53.345Z,27.77
2018-12-27T13:33:57.314Z,36.10
2018-12-27T13:37:01.253Z,33.03
2018-12-27T13:40:05.701Z,30.00
2018-12-27T13:43:09.651Z,31.07
2018-12-27T13:46:13.504Z,32.40
2018-12-27T13:49:17.376Z,30.60
2018-12-27T13:52:21.295Z,32.57
2018-12-27T13:55:25.166Z,28.87
2018-12-27T13:58:29.053Z,30.00
2018-12-27T14:01:33.067Z,26.70
2018-12-27T14:04:36.955Z,25.10
2018-12-27T14:07:40.839Z,25.73
2018-12-27T14:10:44.870Z,30.10
2018-12-27T14:13:48.827Z,20.93
2018-12-27T14:16:52.792Z,25.83
2018-12-27T14:19:56.779Z,26.53
2018-12-27T14:23:00.801Z,22.80
2018-12-27T14:26:04.842Z,24.97
2018-12-27T14:29:08.875Z,28.80
2018-12-27T14:32:12.772Z,26.30
2018-12-27T14:35:16.737Z,29.80
2018-12-27T14:38:20.659Z,27.93
2018-12-27T14:41:24.592Z,24.10
2018-12-27T14:44:28.450Z,27.80
2018-12-27T14:47:32.398Z,29.67
2018-12-27T14:50:36.302Z,30.47
2018-12-27T14:53:40.205Z,26.13
2018-12-27T14:56:44.139Z,22.43
2018-12-27T14:59:48.200Z,24.57
2018-12-27T15:02:52.061Z,25.73
2018-12-27T15:05:56.104Z,27.73
2018-12-27T15:09:00.022Z,28.40
2018-12-27T15:12:05.309Z,32.73
2018-12-27T15:15:10.117Z,25.70
2018-12-27T15:18:21.992Z,30.20
2018-12-27T15:21:26.393Z,26.57
2018-12-27T15:24:30.448Z,25.30
2018-12-27T15:27:34.371Z,27.17
2018-12-27T15:30:38.331Z,25.73
2018-12-27T15:33:42.296Z,23.77
2018-12-27T15:36:46.231Z,19.27
2018-12-27T15:39:51.412Z,20.97
2018-12-27T15:42:55.356Z,19.30
2018-12-27T15:45:59.343Z,18.87
2018-12-27T15:49:03.285Z,18.23
2018-12-27T15:52:07.338Z,26.47
2018-12-27T15:55:11.214Z,15.10
2018-12-27T15:58:15.100Z,18.23
2018-12-27T16:01:19.042Z,17.07
2018-12-27T16:04:22.908Z,16.83
2018-12-27T16:07:26.816Z,14.40
2018-12-27T16:10:30.760Z,15.37
2018-12-27T16:13:34.662Z,15.80
2018-12-27T16:16:38.688Z,18.00
2018-12-27T16:19:42.635Z,13.77
2018-12-27T16:22:46.500Z,12.93
2018-12-27T16:25:50.445Z,18.03
2018-12-27T16:28:54.322Z,16.50
2018-12-27T16:31:58.230Z,15.77
2018-12-27T16:35:02.204Z,17.97
2018-12-27T16:38:06.066Z,16.67
2018-12-27T16:41:10.063Z,17.53
2018-12-27T16:44:13.996Z,16.03
2018-12-27T16:47:17.924Z,24.00
2018-12-27T16:50:21.787Z,14.33
2018-12-27T16:53:25.642Z,15.73
2018-12-27T16:56:29.695Z,21.07
2018-12-27T16:59:33.649Z,18.50
2018-12-27T17:02:37.582Z,19.57
2018-12-27T17:05:41.512Z,22.17
2018-12-27T17:08:46.365Z,17.07
2018-12-27T17:11:50.313Z,20.53
2018-12-27T17:14:54.163Z,17.53
2018-12-27T17:17:58.100Z,20.80
2018-12-27T17:21:01.967Z,18.47
2018-12-27T17:24:05.922Z,17.57
2018-12-27T17:27:12.985Z,21.10
2018-12-27T17:30:16.868Z,19.43
2018-12-27T17:33:20.804Z,20.30
2018-12-27T17:36:24.790Z,19.03
2018-12-27T17:39:28.747Z,25.63
2018-12-27T17:42:33.889Z,19.83
2018-12-27T17:45:37.762Z,20.97
2018-12-27T17:48:43.834Z,22.00
2018-12-27T17:51:47.700Z,15.87
2018-12-27T17:54:51.678Z,25.00
2018-12-27T17:57:55.607Z,22.50
2018-12-27T18:00:59.469Z,20.57
2018-12-27T18:04:03.331Z,16.57
2018-12-27T18:07:07.217Z,16.97
2018-12-27T18:10:11.142Z,18.43
2018-12-27T18:13:15.071Z,18.93
2018-12-27T18:16:18.945Z,22.00
2018-12-27T18:19:22.907Z,21.97
2018-12-27T18:22:26.858Z,17.67
2018-12-27T18:25:30.736Z,22.20
2018-12-27T18:28:34.609Z,16.93
2018-12-27T18:31:38.483Z,19.13
2018-12-27T18:34:44.460Z,21.17
2018-12-27T18:37:48.351Z,19.60
2018-12-27T18:40:52.242Z,18.93
2018-12-27T18:43:58.922Z,24.23
2018-12-27T18:47:05.940Z,30.47
2018-12-27T18:50:09.865Z,22.93
2018-12-27T18:53:16.050Z,25.60
2018-12-27T18:56:19.979Z,27.53
2018-12-27T18:59:23.913Z,29.80
2018-12-27T19:02:27.826Z,21.37
2018-12-27T19:05:33.068Z,22.30
2018-12-27T19:08:36.968Z,20.20
2018-12-27T19:12:19.446Z,20.13
2018-12-27T19:15:28.949Z,33.07
2018-12-27T19:18:35.628Z,33.93
2018-12-27T19:22:06.766Z,32.97
2018-12-27T19:25:10.616Z,44.20
2018-12-27T19:28:16.670Z,17.23
2018-12-27T19:31:20.706Z,22.43
2018-12-27T19:34:29.068Z,28.87
2018-12-27T19:37:38.015Z,22.80
2018-12-27T19:40:42.191Z,25.77
2018-12-27T19:43:46.369Z,23.90
2018-12-27T19:46:53.595Z,26.93
2018-12-27T19:49:57.691Z,25.27
2018-12-27T19:53:01.692Z,27.93
2018-12-27T19:56:17.271Z,32.43
2018-12-27T19:59:21.243Z,20.27
2018-12-27T20:02:25.112Z,23.33
2018-12-27T20:05:35.498Z,19.20
2018-12-27T20:08:39.719Z,53.33
2018-12-27T20:11:43.762Z,27.03
2018-12-27T20:14:47.698Z,24.17
2018-12-27T20:17:51.855Z,28.23
2018-12-27T20:20:55.936Z,19.57
2018-12-27T20:23:59.989Z,20.67
2018-12-27T20:27:05.686Z,27.57
2018-12-27T20:30:09.770Z,24.13
2018-12-27T20:33:13.666Z,27.00
2018-12-27T20:36:17.888Z,36.77
2018-12-27T20:39:22.085Z,27.27
2018-12-27T20:42:29.833Z,34.17
2018-12-27T20:45:33.785Z,31.70
2018-12-27T20:48:37.650Z,38.97
2018-12-27T20:51:41.545Z,29.10
2018-12-27T20:54:45.575Z,26.43
2018-12-27T20:57:50.152Z,15.77
2018-12-27T21:00:56.554Z,25.23
2018-12-27T21:04:07.474Z,22.63
2018-12-27T21:07:12.601Z,21.40
2018-12-27T21:10:16.652Z,17.10
2018-12-27T21:13:20.636Z,45.63
2018-12-27T21:16:26.636Z,22.00
2018-12-27T21:19:30.586Z,17.00
2018-12-27T21:22:34.534Z,15.53
2018-12-27T21:25:41.085Z,12.33
2018-12-27T21:28:47.094Z,12.27
2018-12-27T21:31:51.055Z,11.97
2018-12-27T21:34:56.360Z,13.90
2018-12-27T21:38:00.226Z,17.67
2018-12-27T21:41:04.163Z,15.03
2018-12-27T21:44:09.828Z,19.93
2018-12-27T21:47:13.973Z,14.00
2018-12-27T21:50:18.041Z,11.43
2018-12-27T21:53:21.917Z,13.77
2018-12-27T21:56:25.828Z,15.30
2018-12-27T21:59:31.310Z,12.90
2018-12-27T22:02:40.730Z,15.07
2018-12-27T22:05:46.584Z,15.87
2018-12-27T22:08:51.188Z,16.33
2018-12-27T22:11:55.065Z,11.73
2018-12-27T22:15:00.697Z,14.37
2018-12-27T22:18:07.281Z,10.37
2018-12-27T22:21:11.298Z,10.63
2018-12-27T22:24:15.247Z,6.67
2018-12-27T22:27:21.459Z,9.20
2018-12-27T22:30:25.349Z,10.03
2018-12-27T22:33:29.205Z,9.63
2018-12-27T22:36:33.156Z,14.57
2018-12-27T22:39:37.007Z,12.03
2018-12-27T22:42:40.882Z,9.40
2018-12-27T22:45:44.725Z,9.57
2018-12-27T22:48:48.961Z,12.03
2018-12-27T22:51:52.915Z,12.30
2018-12-27T22:54:58.044Z,12.73
2018-12-27T22:58:02.273Z,8.73
2018-12-27T23:01:12.440Z,11.07
2018-12-27T23:04:16.681Z,13.07
2018-12-27T23:07:20.903Z,11.43
2018-12-27T23:10:24.805Z,10.47
2018-12-27T23:13:28.662Z,8.30
2018-12-27T23:16:35.131Z,6.80
2018-12-27T23:19:39.057Z,3.70
2018-12-27T23:22:45.363Z,5.00
2018-12-27T23:25:50.892Z,6.30
2018-12-27T23:28:58.739Z,7.23
2018-12-27T23:32:02.561Z,7.87
2018-12-27T23:35:11.713Z,5.53
2018-12-27T23:38:17.338Z,7.07
2018-12-27T23:41:21.321Z,5.33
2018-12-27T23:44:25.657Z,7.43
2018-12-27T23:47:29.527Z,8.57
2018-12-27T23:50:33.381Z,6.93
2018-12-27T23:53:37.231Z,9.20
2018-12-27T23:56:42.702Z,3.70
2018-12-27T23:59:49.812Z,5.40
